sensor_id;sensor_type;location;lat;lon;timestamp;P1;durP1;ratioP1;P2;durP2;ratioP2
31095;SDS011;17749;51.962;8.560;2023-08-20T05:03:06;3.22;;;2.15;;
31095;SDS011;17749;51.962;8.560;2023-08-20T05:05:33;5.30;;;3.33;;
31095;SDS011;17749;51.962;8.560;2023-08-20T05:08:00;7.97;;;3.08;;
31095;SDS011;17749;51.962;8.560;2023-08-20T05:10:27;4.93;;;2.83;;
31095;SDS011;17749;51.962;8.560;2023-08-20T05:12:54;6.07;;;2.75;;
31095;SDS011;17749;51.962;8.560;2023-08-20T05:15:21;5.43;;;2.40;;
31095;SDS011;17749;51.962;8.560;2023-08-20T05:17:50;4.55;;;2.63;;
31095;SDS011;17749;51.962;8.560;2023-08-20T05:20:17;4.47;;;2.33;;
31095;SDS011;17749;51.962;8.560;2023-08-20T05:22:44;8.50;;;3.10;;
31095;SDS011;17749;51.962;8.560;2023-08-20T05:25:11;9.40;;;2.78;;
31095;SDS011;17749;51.962;8.560;2023-08-20T05:27:40;5.00;;;2.95;;
31095;SDS011;17749;51.962;8.560;2023-08-20T05:30:08;4.97;;;2.85;;
31095;SDS011;17749;51.962;8.560;2023-08-20T05:32:35;3.60;;;2.45;;
31095;SDS011;17749;51.962;8.560;2023-08-20T05:35:02;7.80;;;2.80;;
31095;SDS011;17749;51.962;8.560;2023-08-20T05:37:31;7.70;;;2.67;;
31095;SDS011;17749;51.962;8.560;2023-08-20T05:39:58;4.78;;;2.60;;
31095;SDS011;17749;51.962;8.560;2023-08-20T05:42:25;4.65;;;2.72;;
31095;SDS011;17749;51.962;8.560;2023-08-20T05:44:59;7.28;;;2.88;;
31095;SDS011;17749;51.962;8.560;2023-08-20T05:47:28;7.43;;;2.72;;
31095;SDS011;17749;51.962;8.560;2023-08-20T05:49:55;4.25;;;2.40;;
31095;SDS011;17749;51.962;8.560;2023-08-20T05:52:22;4.88;;;2.42;;
31095;SDS011;17749;51.962;8.560;2023-08-20T05:54:49;3.72;;;2.53;;
31095;SDS011;17749;51.962;8.560;2023-08-20T05:57:16;9.32;;;2.80;;
31095;SDS011;17749;51.962;8.560;2023-08-20T05:59:43;6.15;;;2.72;;
31095;SDS011;17749;51.962;8.560;2023-08-20T06:02:15;8.50;;;3.03;;
31095;SDS011;17749;51.962;8.560;2023-08-20T06:04:44;5.13;;;3.13;;
31095;SDS011;17749;51.962;8.560;2023-08-20T06:07:11;5.93;;;3.22;;
31095;SDS011;17749;51.962;8.560;2023-08-20T06:09:39;7.68;;;4.03;;
31095;SDS011;17749;51.962;8.560;2023-08-20T06:12:06;4.35;;;2.72;;
31095;SDS011;17749;51.962;8.560;2023-08-20T06:14:33;5.53;;;3.33;;
31095;SDS011;17749;51.962;8.560;2023-08-20T06:17:00;6.32;;;3.40;;
31095;SDS011;17749;51.962;8.560;2023-08-20T06:19:27;7.78;;;3.72;;
31095;SDS011;17749;51.962;8.560;2023-08-20T06:21:54;8.15;;;3.85;;
31095;SDS011;17749;51.962;8.560;2023-08-20T06:24:21;6.93;;;3.72;;
31095;SDS011;17749;51.962;8.560;2023-08-20T06:26:48;6.32;;;2.95;;
31095;SDS011;17749;51.962;8.560;2023-08-20T06:29:15;4.15;;;3.03;;
31095;SDS011;17749;51.962;8.560;2023-08-20T06:31:42;7.50;;;4.00;;
31095;SDS011;17749;51.962;8.560;2023-08-20T06:34:09;6.72;;;3.28;;
31095;SDS011;17749;51.962;8.560;2023-08-20T06:36:36;6.50;;;3.58;;
31095;SDS011;17749;51.962;8.560;2023-08-20T06:39:03;10.50;;;3.72;;
31095;SDS011;17749;51.962;8.560;2023-08-20T06:41:30;6.82;;;3.67;;
31095;SDS011;17749;51.962;8.560;2023-08-20T06:43:57;7.35;;;4.05;;
31095;SDS011;17749;51.962;8.560;2023-08-20T06:46:24;7.95;;;3.97;;
31095;SDS011;17749;51.962;8.560;2023-08-20T06:48:51;6.45;;;4.32;;
31095;SDS011;17749;51.962;8.560;2023-08-20T06:51:19;5.75;;;3.97;;
31095;SDS011;17749;51.962;8.560;2023-08-20T06:53:48;5.75;;;4.00;;
31095;SDS011;17749;51.962;8.560;2023-08-20T06:56:15;6.80;;;4.47;;
31095;SDS011;17749;51.962;8.560;2023-08-20T06:58:42;6.88;;;4.43;;
31095;SDS011;17749;51.962;8.560;2023-08-20T07:01:09;10.52;;;5.45;;
31095;SDS011;17749;51.962;8.560;2023-08-20T07:03:39;5.93;;;4.43;;
31095;SDS011;17749;51.962;8.560;2023-08-20T07:06:07;8.35;;;4.45;;
31095;SDS011;17749;51.962;8.560;2023-08-20T07:08:36;8.52;;;4.80;;
31095;SDS011;17749;51.962;8.560;2023-08-20T07:13:32;8.68;;;5.15;;
31095;SDS011;17749;51.962;8.560;2023-08-20T07:15:59;10.85;;;5.63;;
31095;SDS011;17749;51.962;8.560;2023-08-20T07:18:27;13.13;;;5.55;;
31095;SDS011;17749;51.962;8.560;2023-08-20T07:20:54;11.23;;;6.72;;
31095;SDS011;17749;51.962;8.560;2023-08-20T07:23:22;9.75;;;6.95;;
31095;SDS011;17749;51.962;8.560;2023-08-20T07:25:49;10.15;;;6.47;;
31095;SDS011;17749;51.962;8.560;2023-08-20T07:31:08;9.52;;;6.80;;
31095;SDS011;17749;51.962;8.560;2023-08-20T07:33:35;10.73;;;7.40;;
31095;SDS011;17749;51.962;8.560;2023-08-20T07:36:02;11.73;;;7.60;;
31095;SDS011;17749;51.962;8.560;2023-08-20T07:38:29;10.98;;;8.02;;
31095;SDS011;17749;51.962;8.560;2023-08-20T07:40:56;12.73;;;8.73;;
31095;SDS011;17749;51.962;8.560;2023-08-20T07:43:24;12.98;;;8.50;;
31095;SDS011;17749;51.962;8.560;2023-08-20T07:45:51;11.75;;;8.52;;
31095;SDS011;17749;51.962;8.560;2023-08-20T07:48:18;12.68;;;9.50;;
31095;SDS011;17749;51.962;8.560;2023-08-20T07:50:45;14.50;;;9.18;;
31095;SDS011;17749;51.962;8.560;2023-08-20T07:53:12;13.82;;;9.73;;
31095;SDS011;17749;51.962;8.560;2023-08-20T07:55:39;11.00;;;8.50;;
31095;SDS011;17749;51.962;8.560;2023-08-20T07:58:06;14.35;;;9.70;;
31095;SDS011;17749;51.962;8.560;2023-08-20T08:00:33;9.88;;;8.55;;
31095;SDS011;17749;51.962;8.560;2023-08-20T08:03:00;11.20;;;9.43;;
31095;SDS011;17749;51.962;8.560;2023-08-20T08:05:27;12.68;;;10.07;;
31095;SDS011;17749;51.962;8.560;2023-08-20T08:07:55;14.68;;;11.57;;
31095;SDS011;17749;51.962;8.560;2023-08-20T08:10:22;15.98;;;9.82;;
31095;SDS011;17749;51.962;8.560;2023-08-20T08:12:49;12.70;;;10.38;;
31095;SDS011;17749;51.962;8.560;2023-08-20T08:15:16;13.40;;;9.10;;
31095;SDS011;17749;51.962;8.560;2023-08-20T08:17:44;15.20;;;10.18;;
31095;SDS011;17749;51.962;8.560;2023-08-20T08:20:11;15.55;;;10.20;;
31095;SDS011;17749;51.962;8.560;2023-08-20T08:22:39;13.15;;;10.48;;
31095;SDS011;17749;51.962;8.560;2023-08-20T08:25:06;13.90;;;10.98;;
31095;SDS011;17749;51.962;8.560;2023-08-20T08:27:33;17.65;;;10.60;;
31095;SDS011;17749;51.962;8.560;2023-08-20T08:30:16;12.90;;;10.02;;
31095;SDS011;17749;51.962;8.560;2023-08-20T08:32:43;16.13;;;11.73;;
31095;SDS011;17749;51.962;8.560;2023-08-20T08:35:10;17.70;;;12.07;;
31095;SDS011;17749;51.962;8.560;2023-08-20T08:37:37;15.32;;;11.50;;
31095;SDS011;17749;51.962;8.560;2023-08-20T08:40:04;18.40;;;12.10;;
31095;SDS011;17749;51.962;8.560;2023-08-20T08:42:34;14.52;;;9.57;;
31095;SDS011;17749;51.962;8.560;2023-08-20T08:45:02;16.10;;;11.40;;
31095;SDS011;17749;51.962;8.560;2023-08-20T08:47:29;14.63;;;10.32;;
31095;SDS011;17749;51.962;8.560;2023-08-20T08:49:56;12.70;;;9.10;;
31095;SDS011;17749;51.962;8.560;2023-08-20T08:52:23;13.93;;;10.88;;
31095;SDS011;17749;51.962;8.560;2023-08-20T08:54:52;14.25;;;10.30;;
31095;SDS011;17749;51.962;8.560;2023-08-20T08:57:19;13.00;;;9.93;;
31095;SDS011;17749;51.962;8.560;2023-08-20T08:59:46;11.38;;;8.25;;
31095;SDS011;17749;51.962;8.560;2023-08-20T09:02:13;13.75;;;9.65;;
31095;SDS011;17749;51.962;8.560;2023-08-20T09:04:44;11.68;;;8.95;;
31095;SDS011;17749;51.962;8.560;2023-08-20T09:07:11;13.32;;;8.80;;
31095;SDS011;17749;51.962;8.560;2023-08-20T09:09:43;10.15;;;8.60;;
31095;SDS011;17749;51.962;8.560;2023-08-20T09:12:13;11.57;;;7.53;;
31095;SDS011;17749;51.962;8.560;2023-08-20T09:14:50;8.98;;;7.30;;
31095;SDS011;17749;51.962;8.560;2023-08-20T09:17:18;8.85;;;7.00;;
31095;SDS011;17749;51.962;8.560;2023-08-20T09:19:48;6.63;;;5.63;;
31095;SDS011;17749;51.962;8.560;2023-08-20T09:22:15;7.32;;;6.53;;
31095;SDS011;17749;51.962;8.560;2023-08-20T09:24:44;9.98;;;6.82;;
31095;SDS011;17749;51.962;8.560;2023-08-20T09:27:13;7.57;;;5.60;;
31095;SDS011;17749;51.962;8.560;2023-08-20T09:29:44;8.77;;;6.30;;
31095;SDS011;17749;51.962;8.560;2023-08-20T09:32:19;10.50;;;6.57;;
31095;SDS011;17749;51.962;8.560;2023-08-20T09:34:51;8.47;;;6.37;;
31095;SDS011;17749;51.962;8.560;2023-08-20T09:37:21;6.88;;;5.75;;
31095;SDS011;17749;51.962;8.560;2023-08-20T09:39:50;7.32;;;5.95;;
31095;SDS011;17749;51.962;8.560;2023-08-20T09:42:17;7.47;;;6.10;;
31095;SDS011;17749;51.962;8.560;2023-08-20T09:44:45;10.63;;;5.90;;
31095;SDS011;17749;51.962;8.560;2023-08-20T09:47:17;8.00;;;6.53;;
31095;SDS011;17749;51.962;8.560;2023-08-20T09:49:46;8.60;;;5.83;;
31095;SDS011;17749;51.962;8.560;2023-08-20T09:52:20;9.13;;;6.05;;
31095;SDS011;17749;51.962;8.560;2023-08-20T09:57:35;5.65;;;5.05;;
31095;SDS011;17749;51.962;8.560;2023-08-20T10:00:10;6.60;;;5.68;;
31095;SDS011;17749;51.962;8.560;2023-08-20T10:02:39;7.80;;;5.75;;
31095;SDS011;17749;51.962;8.560;2023-08-20T10:05:10;7.10;;;6.03;;
31095;SDS011;17749;51.962;8.560;2023-08-20T10:07:39;5.88;;;5.03;;
31095;SDS011;17749;51.962;8.560;2023-08-20T10:10:07;6.93;;;4.90;;
31095;SDS011;17749;51.962;8.560;2023-08-20T10:12:35;9.95;;;6.43;;
31095;SDS011;17749;51.962;8.560;2023-08-20T10:15:08;8.00;;;5.97;;
31095;SDS011;17749;51.962;8.560;2023-08-20T10:17:37;7.28;;;5.15;;
31095;SDS011;17749;51.962;8.560;2023-08-20T10:22:40;6.82;;;5.60;;
31095;SDS011;17749;51.962;8.560;2023-08-20T10:25:24;9.50;;;5.32;;
31095;SDS011;17749;51.962;8.560;2023-08-20T10:27:52;7.60;;;5.63;;
31095;SDS011;17749;51.962;8.560;2023-08-20T10:30:26;7.97;;;5.75;;
31095;SDS011;17749;51.962;8.560;2023-08-20T10:32:54;5.90;;;4.72;;
31095;SDS011;17749;51.962;8.560;2023-08-20T10:35:25;5.88;;;4.60;;
31095;SDS011;17749;51.962;8.560;2023-08-20T10:38:00;5.40;;;3.90;;
31095;SDS011;17749;51.962;8.560;2023-08-20T10:46:02;3.58;;;3.20;;
31095;SDS011;17749;51.962;8.560;2023-08-20T10:48:38;5.95;;;3.92;;
31095;SDS011;17749;51.962;8.560;2023-08-20T10:51:07;5.22;;;3.58;;
31095;SDS011;17749;51.962;8.560;2023-08-20T10:53:34;6.80;;;4.43;;
31095;SDS011;17749;51.962;8.560;2023-08-20T10:56:14;4.65;;;3.72;;
31095;SDS011;17749;51.962;8.560;2023-08-20T10:58:45;3.90;;;3.50;;
31095;SDS011;17749;51.962;8.560;2023-08-20T11:03:45;5.35;;;3.88;;
31095;SDS011;17749;51.962;8.560;2023-08-20T11:06:13;4.85;;;4.35;;
31095;SDS011;17749;51.962;8.560;2023-08-20T11:08:41;6.20;;;4.25;;
31095;SDS011;17749;51.962;8.560;2023-08-20T11:11:08;5.90;;;3.93;;
31095;SDS011;17749;51.962;8.560;2023-08-20T11:13:38;6.38;;;4.07;;
31095;SDS011;17749;51.962;8.560;2023-08-20T11:16:05;5.13;;;4.25;;
31095;SDS011;17749;51.962;8.560;2023-08-20T11:18:33;4.70;;;4.13;;
31095;SDS011;17749;51.962;8.560;2023-08-20T11:21:00;7.20;;;4.57;;
31095;SDS011;17749;51.962;8.560;2023-08-20T11:23:28;5.40;;;4.70;;
31095;SDS011;17749;51.962;8.560;2023-08-20T11:25:56;5.90;;;4.60;;
31095;SDS011;17749;51.962;8.560;2023-08-20T11:28:24;7.47;;;4.75;;
31095;SDS011;17749;51.962;8.560;2023-08-20T11:30:52;5.05;;;4.40;;
31095;SDS011;17749;51.962;8.560;2023-08-20T11:33:21;4.72;;;4.20;;
31095;SDS011;17749;51.962;8.560;2023-08-20T11:35:49;8.23;;;4.95;;
31095;SDS011;17749;51.962;8.560;2023-08-20T11:38:16;6.65;;;4.95;;
31095;SDS011;17749;51.962;8.560;2023-08-20T11:40:43;6.30;;;5.03;;
31095;SDS011;17749;51.962;8.560;2023-08-20T11:43:10;6.88;;;4.55;;
31095;SDS011;17749;51.962;8.560;2023-08-20T11:45:45;5.07;;;4.47;;
31095;SDS011;17749;51.962;8.560;2023-08-20T11:48:15;7.63;;;4.88;;
31095;SDS011;17749;51.962;8.560;2023-08-20T11:50:43;6.63;;;4.32;;
31095;SDS011;17749;51.962;8.560;2023-08-20T11:53:10;5.90;;;4.65;;
31095;SDS011;17749;51.962;8.560;2023-08-20T11:55:41;7.22;;;5.20;;
31095;SDS011;17749;51.962;8.560;2023-08-20T11:58:09;7.13;;;5.35;;
31095;SDS011;17749;51.962;8.560;2023-08-20T12:00:38;6.60;;;5.40;;
31095;SDS011;17749;51.962;8.560;2023-08-20T12:03:05;10.20;;;5.95;;
31095;SDS011;17749;51.962;8.560;2023-08-20T12:08:02;8.35;;;5.95;;
31095;SDS011;17749;51.962;8.560;2023-08-20T12:12:59;10.18;;;6.60;;
31095;SDS011;17749;51.962;8.560;2023-08-20T12:15:28;6.80;;;5.45;;
31095;SDS011;17749;51.962;8.560;2023-08-20T12:17:56;7.45;;;5.47;;
31095;SDS011;17749;51.962;8.560;2023-08-20T12:20:26;6.03;;;5.43;;
31095;SDS011;17749;51.962;8.560;2023-08-20T12:22:54;7.22;;;5.78;;
31095;SDS011;17749;51.962;8.560;2023-08-20T12:25:21;8.85;;;5.72;;
31095;SDS011;17749;51.962;8.560;2023-08-20T12:27:48;7.25;;;5.07;;
31095;SDS011;17749;51.962;8.560;2023-08-20T12:30:15;9.25;;;5.30;;
31095;SDS011;17749;51.962;8.560;2023-08-20T12:32:43;8.80;;;6.03;;
31095;SDS011;17749;51.962;8.560;2023-08-20T12:35:10;5.90;;;4.90;;
31095;SDS011;17749;51.962;8.560;2023-08-20T12:37:37;6.90;;;4.95;;
31095;SDS011;17749;51.962;8.560;2023-08-20T12:40:04;7.53;;;5.50;;
31095;SDS011;17749;51.962;8.560;2023-08-20T12:42:37;6.45;;;5.18;;
31095;SDS011;17749;51.962;8.560;2023-08-20T12:45:07;5.97;;;5.35;;
31095;SDS011;17749;51.962;8.560;2023-08-20T12:47:34;7.00;;;4.90;;
31095;SDS011;17749;51.962;8.560;2023-08-20T12:50:02;8.48;;;5.18;;
31095;SDS011;17749;51.962;8.560;2023-08-20T12:52:31;7.20;;;5.45;;
31095;SDS011;17749;51.962;8.560;2023-08-20T12:54:59;7.25;;;5.53;;
31095;SDS011;17749;51.962;8.560;2023-08-20T12:57:26;8.63;;;5.18;;
31095;SDS011;17749;51.962;8.560;2023-08-20T12:59:53;7.00;;;5.60;;
31095;SDS011;17749;51.962;8.560;2023-08-20T13:02:20;6.72;;;5.00;;
31095;SDS011;17749;51.962;8.560;2023-08-20T13:04:48;7.00;;;5.13;;
31095;SDS011;17749;51.962;8.560;2023-08-20T13:07:16;5.68;;;4.88;;
31095;SDS011;17749;51.962;8.560;2023-08-20T13:09:44;5.40;;;4.30;;
31095;SDS011;17749;51.962;8.560;2023-08-20T13:12:11;6.35;;;4.32;;
31095;SDS011;17749;51.962;8.560;2023-08-20T13:14:39;7.25;;;5.10;;
31095;SDS011;17749;51.962;8.560;2023-08-20T13:17:08;5.93;;;5.30;;
31095;SDS011;17749;51.962;8.560;2023-08-20T13:19:36;6.25;;;4.68;;
31095;SDS011;17749;51.962;8.560;2023-08-20T13:22:04;7.05;;;4.82;;
31095;SDS011;17749;51.962;8.560;2023-08-20T13:24:31;8.05;;;5.35;;
31095;SDS011;17749;51.962;8.560;2023-08-20T13:26:58;6.50;;;4.95;;
31095;SDS011;17749;51.962;8.560;2023-08-20T13:29:25;6.70;;;5.05;;
31095;SDS011;17749;51.962;8.560;2023-08-20T13:31:52;6.72;;;4.95;;
31095;SDS011;17749;51.962;8.560;2023-08-20T13:34:20;6.32;;;5.40;;
31095;SDS011;17749;51.962;8.560;2023-08-20T13:36:46;7.40;;;4.82;;
31095;SDS011;17749;51.962;8.560;2023-08-20T13:39:14;10.20;;;6.10;;
31095;SDS011;17749;51.962;8.560;2023-08-20T13:41:41;6.78;;;4.55;;
31095;SDS011;17749;51.962;8.560;2023-08-20T13:44:08;6.70;;;4.90;;
31095;SDS011;17749;51.962;8.560;2023-08-20T13:46:35;7.32;;;5.38;;
31095;SDS011;17749;51.962;8.560;2023-08-20T13:49:02;9.02;;;5.15;;
31095;SDS011;17749;51.962;8.560;2023-08-20T13:51:30;6.18;;;5.10;;
31095;SDS011;17749;51.962;8.560;2023-08-20T13:53:57;6.20;;;4.93;;
31095;SDS011;17749;51.962;8.560;2023-08-20T13:56:24;9.25;;;4.95;;
31095;SDS011;17749;51.962;8.560;2023-08-20T13:58:52;6.25;;;4.65;;
31095;SDS011;17749;51.962;8.560;2023-08-20T14:01:20;6.63;;;5.32;;
31095;SDS011;17749;51.962;8.560;2023-08-20T14:03:47;7.88;;;5.43;;
31095;SDS011;17749;51.962;8.560;2023-08-20T14:06:14;6.60;;;4.97;;
31095;SDS011;17749;51.962;8.560;2023-08-20T14:08:41;5.43;;;4.75;;
31095;SDS011;17749;51.962;8.560;2023-08-20T14:11:08;6.07;;;4.65;;
31095;SDS011;17749;51.962;8.560;2023-08-20T14:13:35;6.55;;;5.10;;
31095;SDS011;17749;51.962;8.560;2023-08-20T14:16:02;5.30;;;4.72;;
31095;SDS011;17749;51.962;8.560;2023-08-20T14:18:29;9.27;;;5.43;;
31095;SDS011;17749;51.962;8.560;2023-08-20T14:20:56;9.57;;;5.05;;
31095;SDS011;17749;51.962;8.560;2023-08-20T14:23:24;7.03;;;4.60;;
31095;SDS011;17749;51.962;8.560;2023-08-20T14:25:51;7.10;;;4.53;;
31095;SDS011;17749;51.962;8.560;2023-08-20T14:28:21;6.25;;;5.10;;
31095;SDS011;17749;51.962;8.560;2023-08-20T14:30:48;7.25;;;5.20;;
31095;SDS011;17749;51.962;8.560;2023-08-20T14:33:18;6.25;;;5.00;;
31095;SDS011;17749;51.962;8.560;2023-08-20T14:35:45;8.23;;;5.75;;
31095;SDS011;17749;51.962;8.560;2023-08-20T14:38:12;6.03;;;4.90;;
31095;SDS011;17749;51.962;8.560;2023-08-20T14:40:39;9.48;;;6.10;;
31095;SDS011;17749;51.962;8.560;2023-08-20T14:43:07;5.30;;;4.70;;
31095;SDS011;17749;51.962;8.560;2023-08-20T14:45:35;6.50;;;5.07;;
31095;SDS011;17749;51.962;8.560;2023-08-20T14:48:02;6.20;;;5.07;;
31095;SDS011;17749;51.962;8.560;2023-08-20T14:50:29;9.43;;;5.35;;
31095;SDS011;17749;51.962;8.560;2023-08-20T14:52:57;6.00;;;5.40;;
31095;SDS011;17749;51.962;8.560;2023-08-20T14:55:24;8.07;;;5.38;;
31095;SDS011;17749;51.962;8.560;2023-08-20T14:57:52;6.30;;;5.20;;
31095;SDS011;17749;51.962;8.560;2023-08-20T15:00:19;6.45;;;4.60;;
31095;SDS011;17749;51.962;8.560;2023-08-20T15:02:49;7.95;;;5.43;;
31095;SDS011;17749;51.962;8.560;2023-08-20T15:05:16;6.00;;;5.40;;
31095;SDS011;17749;51.962;8.560;2023-08-20T15:07:43;9.40;;;5.20;;
31095;SDS011;17749;51.962;8.560;2023-08-20T15:10:10;6.00;;;4.88;;
31095;SDS011;17749;51.962;8.560;2023-08-20T15:12:37;5.70;;;4.82;;
31095;SDS011;17749;51.962;8.560;2023-08-20T15:15:05;7.13;;;5.70;;
31095;SDS011;17749;51.962;8.560;2023-08-20T15:17:32;7.68;;;5.72;;
31095;SDS011;17749;51.962;8.560;2023-08-20T15:20:00;6.85;;;5.55;;
31095;SDS011;17749;51.962;8.560;2023-08-20T15:22:27;7.30;;;5.65;;
31095;SDS011;17749;51.962;8.560;2023-08-20T15:24:54;6.78;;;5.32;;
31095;SDS011;17749;51.962;8.560;2023-08-20T15:27:23;7.18;;;6.03;;
31095;SDS011;17749;51.962;8.560;2023-08-20T15:29:52;7.18;;;5.55;;
31095;SDS011;17749;51.962;8.560;2023-08-20T15:32:19;7.78;;;5.85;;
31095;SDS011;17749;51.962;8.560;2023-08-20T15:34:47;7.82;;;5.80;;
31095;SDS011;17749;51.962;8.560;2023-08-20T15:37:15;6.97;;;6.13;;
31095;SDS011;17749;51.962;8.560;2023-08-20T15:39:42;6.57;;;5.88;;
31095;SDS011;17749;51.962;8.560;2023-08-20T15:42:10;8.13;;;6.05;;
31095;SDS011;17749;51.962;8.560;2023-08-20T15:44:40;8.25;;;5.55;;
31095;SDS011;17749;51.962;8.560;2023-08-20T15:47:07;6.05;;;5.25;;
31095;SDS011;17749;51.962;8.560;2023-08-20T15:49:34;7.63;;;5.78;;
31095;SDS011;17749;51.962;8.560;2023-08-20T15:52:01;6.20;;;5.60;;
31095;SDS011;17749;51.962;8.560;2023-08-20T15:54:29;8.00;;;5.80;;
31095;SDS011;17749;51.962;8.560;2023-08-20T15:56:56;8.27;;;5.90;;
31095;SDS011;17749;51.962;8.560;2023-08-20T15:59:23;6.40;;;5.25;;
31095;SDS011;17749;51.962;8.560;2023-08-20T16:01:50;6.57;;;5.80;;
31095;SDS011;17749;51.962;8.560;2023-08-20T16:04:18;7.68;;;4.85;;
31095;SDS011;17749;51.962;8.560;2023-08-20T16:06:45;6.95;;;5.75;;
31095;SDS011;17749;51.962;8.560;2023-08-20T16:09:11;6.82;;;5.28;;
31095;SDS011;17749;51.962;8.560;2023-08-20T16:11:39;6.93;;;5.15;;
31095;SDS011;17749;51.962;8.560;2023-08-20T16:14:06;6.25;;;5.50;;
31095;SDS011;17749;51.962;8.560;2023-08-20T16:16:33;6.05;;;5.05;;
31095;SDS011;17749;51.962;8.560;2023-08-20T16:19:00;6.90;;;5.32;;
31095;SDS011;17749;51.962;8.560;2023-08-20T16:21:27;7.60;;;5.07;;
31095;SDS011;17749;51.962;8.560;2023-08-20T16:23:54;7.25;;;4.97;;
31095;SDS011;17749;51.962;8.560;2023-08-20T16:26:21;6.25;;;5.35;;
31095;SDS011;17749;51.962;8.560;2023-08-20T16:28:48;7.78;;;5.90;;
31095;SDS011;17749;51.962;8.560;2023-08-20T16:31:16;10.67;;;6.00;;
31095;SDS011;17749;51.962;8.560;2023-08-20T16:33:43;7.78;;;6.05;;
31095;SDS011;17749;51.962;8.560;2023-08-20T16:36:10;8.45;;;6.43;;
31095;SDS011;17749;51.962;8.560;2023-08-20T16:38:37;8.95;;;6.18;;
31095;SDS011;17749;51.962;8.560;2023-08-20T16:41:04;8.95;;;5.88;;
31095;SDS011;17749;51.962;8.560;2023-08-20T16:43:32;8.18;;;5.70;;
31095;SDS011;17749;51.962;8.560;2023-08-20T16:46:01;6.57;;;5.70;;
31095;SDS011;17749;51.962;8.560;2023-08-20T16:48:29;6.13;;;5.20;;
31095;SDS011;17749;51.962;8.560;2023-08-20T16:50:59;6.68;;;5.60;;
31095;SDS011;17749;51.962;8.560;2023-08-20T16:53:27;10.27;;;6.68;;
31095;SDS011;17749;51.962;8.560;2023-08-20T16:55:55;9.70;;;7.30;;
31095;SDS011;17749;51.962;8.560;2023-08-20T16:58:22;10.45;;;7.28;;
31095;SDS011;17749;51.962;8.560;2023-08-20T17:00:49;10.27;;;7.07;;
31095;SDS011;17749;51.962;8.560;2023-08-20T17:03:17;10.23;;;8.50;;
31095;SDS011;17749;51.962;8.560;2023-08-20T17:05:44;13.02;;;8.20;;
31095;SDS011;17749;51.962;8.560;2023-08-20T17:08:11;9.15;;;7.47;;
31095;SDS011;17749;51.962;8.560;2023-08-20T17:10:38;8.63;;;7.03;;
31095;SDS011;17749;51.962;8.560;2023-08-20T17:15:34;6.95;;;6.25;;
31095;SDS011;17749;51.962;8.560;2023-08-20T17:18:02;7.63;;;6.03;;
31095;SDS011;17749;51.962;8.560;2023-08-20T17:20:29;6.00;;;5.40;;
31095;SDS011;17749;51.962;8.560;2023-08-20T17:22:56;6.90;;;6.13;;
31095;SDS011;17749;51.962;8.560;2023-08-20T17:25:23;7.60;;;5.38;;
31095;SDS011;17749;51.962;8.560;2023-08-20T17:27:50;7.25;;;5.47;;
31095;SDS011;17749;51.962;8.560;2023-08-20T17:30:17;7.18;;;6.10;;
31095;SDS011;17749;51.962;8.560;2023-08-20T17:32:44;8.68;;;5.80;;
31095;SDS011;17749;51.962;8.560;2023-08-20T17:35:11;9.10;;;6.50;;
31095;SDS011;17749;51.962;8.560;2023-08-20T17:37:38;8.18;;;6.18;;
31095;SDS011;17749;51.962;8.560;2023-08-20T17:40:05;8.50;;;6.45;;
31095;SDS011;17749;51.962;8.560;2023-08-20T17:42:37;10.43;;;6.15;;
31095;SDS011;17749;51.962;8.560;2023-08-20T17:45:05;11.90;;;6.47;;
31095;SDS011;17749;51.962;8.560;2023-08-20T17:47:32;7.22;;;6.30;;
31095;SDS011;17749;51.962;8.560;2023-08-20T17:50:05;8.05;;;6.20;;
31095;SDS011;17749;51.962;8.560;2023-08-20T17:52:51;6.00;;;5.40;;
31095;SDS011;17749;51.962;8.560;2023-08-20T17:55:47;7.80;;;5.57;;
31095;SDS011;17749;51.962;8.560;2023-08-20T17:58:15;7.88;;;5.03;;
31095;SDS011;17749;51.962;8.560;2023-08-20T18:00:46;8.02;;;4.80;;
31095;SDS011;17749;51.962;8.560;2023-08-20T18:03:16;6.15;;;4.70;;
31095;SDS011;17749;51.962;8.560;2023-08-20T18:05:57;8.27;;;4.75;;
31095;SDS011;17749;51.962;8.560;2023-08-20T18:08:39;7.82;;;5.25;;
31095;SDS011;17749;51.962;8.560;2023-08-20T18:11:16;5.47;;;3.92;;
31095;SDS011;17749;51.962;8.560;2023-08-20T18:13:47;6.43;;;4.28;;
31095;SDS011;17749;51.962;8.560;2023-08-20T18:16:18;6.10;;;4.55;;
31095;SDS011;17749;51.962;8.560;2023-08-20T18:19:24;5.45;;;4.72;;
31095;SDS011;17749;51.962;8.560;2023-08-20T18:21:53;5.53;;;4.50;;
31095;SDS011;17749;51.962;8.560;2023-08-20T18:24:21;5.10;;;4.07;;
31095;SDS011;17749;51.962;8.560;2023-08-20T18:26:48;5.78;;;3.80;;
31095;SDS011;17749;51.962;8.560;2023-08-20T18:29:15;5.93;;;3.65;;
31095;SDS011;17749;51.962;8.560;2023-08-20T18:31:42;4.90;;;3.30;;
31095;SDS011;17749;51.962;8.560;2023-08-20T18:34:09;7.47;;;3.33;;
31095;SDS011;17749;51.962;8.560;2023-08-20T18:36:36;3.58;;;3.10;;
31095;SDS011;17749;51.962;8.560;2023-08-20T18:39:03;6.68;;;3.30;;
31095;SDS011;17749;51.962;8.560;2023-08-20T18:41:31;4.78;;;3.15;;
31095;SDS011;17749;51.962;8.560;2023-08-20T18:43:58;5.10;;;3.05;;
31095;SDS011;17749;51.962;8.560;2023-08-20T18:46:25;6.07;;;4.15;;
31095;SDS011;17749;51.962;8.560;2023-08-20T18:48:52;5.43;;;3.22;;
31095;SDS011;17749;51.962;8.560;2023-08-20T18:51:22;4.95;;;3.00;;
31095;SDS011;17749;51.962;8.560;2023-08-20T18:53:51;5.90;;;3.47;;
31095;SDS011;17749;51.962;8.560;2023-08-20T18:56:18;4.85;;;3.83;;
31095;SDS011;17749;51.962;8.560;2023-08-20T18:58:45;5.13;;;4.05;;
31095;SDS011;17749;51.962;8.560;2023-08-20T19:01:12;5.88;;;3.70;;
31095;SDS011;17749;51.962;8.560;2023-08-20T19:03:39;5.55;;;3.95;;
31095;SDS011;17749;51.962;8.560;2023-08-20T19:06:06;4.38;;;3.20;;
31095;SDS011;17749;51.962;8.560;2023-08-20T19:08:33;7.05;;;3.97;;
31095;SDS011;17749;51.962;8.560;2023-08-20T19:11:00;6.03;;;3.42;;
31095;SDS011;17749;51.962;8.560;2023-08-20T19:13:28;7.28;;;3.10;;
31095;SDS011;17749;51.962;8.560;2023-08-20T19:15:55;3.95;;;3.05;;
31095;SDS011;17749;51.962;8.560;2023-08-20T19:18:22;5.68;;;3.47;;
31095;SDS011;17749;51.962;8.560;2023-08-20T19:20:50;3.30;;;2.97;;
31095;SDS011;17749;51.962;8.560;2023-08-20T19:23:19;4.07;;;2.90;;
31095;SDS011;17749;51.962;8.560;2023-08-20T19:25:48;5.05;;;2.95;;
31095;SDS011;17749;51.962;8.560;2023-08-20T19:28:15;3.97;;;2.30;;
31095;SDS011;17749;51.962;8.560;2023-08-20T19:30:46;4.45;;;2.35;;
31095;SDS011;17749;51.962;8.560;2023-08-20T19:33:14;2.88;;;2.03;;
31095;SDS011;17749;51.962;8.560;2023-08-20T19:35:41;5.88;;;2.20;;
31095;SDS011;17749;51.962;8.560;2023-08-20T19:38:11;2.72;;;1.95;;
31095;SDS011;17749;51.962;8.560;2023-08-20T19:40:39;3.20;;;1.80;;
31095;SDS011;17749;51.962;8.560;2023-08-20T19:43:08;3.97;;;1.90;;
31095;SDS011;17749;51.962;8.560;2023-08-20T19:45:35;4.28;;;2.28;;
31095;SDS011;17749;51.962;8.560;2023-08-20T19:48:02;4.38;;;1.80;;
31095;SDS011;17749;51.962;8.560;2023-08-20T19:50:30;3.17;;;1.73;;
31095;SDS011;17749;51.962;8.560;2023-08-20T19:52:57;3.15;;;1.27;;
31095;SDS011;17749;51.962;8.560;2023-08-20T19:55:24;6.13;;;2.45;;
31095;SDS011;17749;51.962;8.560;2023-08-20T19:57:51;2.92;;;1.25;;
31095;SDS011;17749;51.962;8.560;2023-08-20T20:00:18;3.58;;;1.65;;
31095;SDS011;17749;51.962;8.560;2023-08-20T20:02:46;2.47;;;1.23;;
31095;SDS011;17749;51.962;8.560;2023-08-20T20:05:13;5.15;;;1.50;;
31095;SDS011;17749;51.962;8.560;2023-08-20T20:07:41;2.38;;;1.10;;
31095;SDS011;17749;51.962;8.560;2023-08-20T20:10:09;2.97;;;1.20;;
31095;SDS011;17749;51.962;8.560;2023-08-20T20:12:37;4.20;;;2.22;;
31095;SDS011;17749;51.962;8.560;2023-08-20T20:15:07;4.13;;;1.60;;
31095;SDS011;17749;51.962;8.560;2023-08-20T20:17:35;1.90;;;1.17;;
31095;SDS011;17749;51.962;8.560;2023-08-20T20:20:07;3.27;;;1.23;;